Time;durP1;ratioP1;P1;durP2;ratioP2;P2;SDS_P1;SDS_P2;PMS_P1;PMS_P2;Temp;Humidity;BMP_temperature;BMP_pressure;BME280_temperature;BME280_humidity;BME280_pressure;Samples;Min_cycle;Max_cycle;Signal;HPM_P1;HPM_P2
2021/10/26 00:01:31;;;;;;;;;12.33;11.33;;;;;-147.17;100.00;49218.16;5051560;28;51445;-57
2021/10/26 00:03:57;;;;;;;;;14.67;12.33;;;;;-147.17;100.00;49281.13;5062516;28;51276;-57
2021/10/26 00:06:22;;;;;;;;;13.25;12.50;;;;;-147.17;100.00;49237.84;5065731;28;52585;-58
2021/10/26 00:08:47;;;;;;;;;10.33;10.33;;;;;-147.17;100.00;49231.94;5059417;28;51838;-58
2021/10/26 00:11:13;;;;;;;;;8.33;8.00;;;;;-147.17;100.00;49249.66;5058727;28;51180;-56
2021/10/26 00:13:38;;;;;;;;;9.67;9.67;;;;;-147.17;100.00;49285.06;5056339;28;51124;-55
2021/10/26 00:16:05;;;;;;;;;8.67;8.00;;;;;-147.17;100.00;49267.38;5071285;28;51022;-57
2021/10/26 00:18:31;;;;;;;;;12.00;11.00;;;;;-147.17;100.00;49269.34;5041743;28;51833;-56
2021/10/26 00:20:56;;;;;;;;;12.33;11.33;;;;;-147.17;100.00;49265.41;5061188;28;51112;-55
2021/10/26 00:23:22;;;;;;;;;9.00;8.00;;;;;-147.17;100.00;49222.09;5052166;28;50983;-55
2021/10/26 00:25:47;;;;;;;;;8.33;8.33;;;;;-147.17;100.00;49267.38;5052071;28;52170;-57
2021/10/26 00:28:13;;;;;;;;;10.33;9.67;;;;;-147.17;100.00;49233.91;5045078;28;53047;-56
2021/10/26 00:30:38;;;;;;;;;10.33;9.33;;;;;-147.17;100.00;49275.22;5056463;28;51086;-56
2021/10/26 00:33:03;;;;;;;;;9.00;9.00;;;;;-147.17;100.00;49290.97;5034086;28;51170;-56
2021/10/26 00:35:30;;;;;;;;;9.00;9.00;;;;;-147.17;100.00;49241.78;5034134;28;51008;-58
2021/10/26 00:37:56;;;;;;;;;9.00;8.00;;;;;-147.17;100.00;49285.06;5051756;28;51110;-56
2021/10/26 00:40:23;;;;;;;;;9.33;8.67;;;;;-147.17;100.00;49253.59;5053954;28;51204;-57
2021/10/26 00:42:51;;;;;;;;;7.00;7.00;;;;;-147.17;100.00;49275.22;5061112;28;51187;-56
2021/10/26 00:45:16;;;;;;;;;7.50;7.25;;;;;-147.17;100.00;49275.22;5046550;28;51162;-56
2021/10/26 00:47:42;;;;;;;;;4.00;4.00;;;;;-147.17;100.00;49245.72;5054790;28;51922;-57
2021/10/26 00:50:07;;;;;;;;;7.67;7.67;;;;;-147.17;100.00;49228.00;5056322;28;51106;-57
2021/10/26 00:52:33;;;;;;;;;7.00;6.25;;;;;-147.17;100.00;49261.47;5074849;28;51186;-56
2021/10/26 00:54:59;;;;;;;;;9.67;9.00;;;;;-147.17;100.00;49253.59;5075348;28;51104;-56
2021/10/26 00:57:26;;;;;;;;;7.67;7.67;;;;;-147.17;100.00;49269.34;5069289;28;51858;-57
2021/10/26 00:59:51;;;;;;;;;7.00;7.00;;;;;-147.17;100.00;49239.81;5066752;28;51730;-55
2021/10/26 01:02:17;;;;;;;;;9.00;8.33;;;;;-147.17;100.00;49239.81;5061529;28;50904;-57
2021/10/26 01:04:42;;;;;;;;;7.67;7.00;;;;;-147.17;100.00;49300.81;5054995;28;50960;-57
2021/10/26 01:07:08;;;;;;;;;6.00;5.67;;;;;-147.17;100.00;49285.06;5054752;28;51744;-56
2021/10/26 01:09:34;;;;;;;;;7.00;7.00;;;;;-147.17;100.00;49294.91;5066991;28;51114;-57
2021/10/26 01:11:59;;;;;;;;;6.67;5.67;;;;;-147.17;100.00;49283.09;5075108;28;51281;-57
2021/10/26 01:14:25;;;;;;;;;6.67;6.00;;;;;-147.17;100.00;49281.13;5073782;28;50933;-57
2021/10/26 01:16:50;;;;;;;;;7.00;7.00;;;;;-147.17;100.00;49269.34;5066638;28;51351;-57
2021/10/26 01:19:16;;;;;;;;;6.33;6.00;;;;;-147.17;100.00;49273.25;5067153;28;50953;-56
2021/10/26 01:21:41;;;;;;;;;7.00;6.67;;;;;-147.17;100.00;49249.66;5075230;28;50974;-57
2021/10/26 01:24:07;;;;;;;;;7.33;7.00;;;;;-147.17;100.00;49298.84;5060703;28;50993;-57
2021/10/26 01:26:32;;;;;;;;;8.00;7.00;;;;;-147.17;100.00;49271.31;5060000;28;51970;-56
2021/10/26 01:28:58;;;;;;;;;7.00;7.00;;;;;-147.17;100.00;49261.47;5064536;28;51069;-56
2021/10/26 01:31:24;;;;;;;;;6.00;6.00;;;;;-147.17;100.00;49294.91;5054341;28;51237;-56
2021/10/26 01:33:49;;;;;;;;;6.67;6.67;;;;;-147.17;100.00;49275.22;5062091;28;51280;-56
2021/10/26 01:36:18;;;;;;;;;5.00;5.00;;;;;-147.17;100.00;49261.47;5055745;28;52125;-56
2021/10/26 01:38:44;;;;;;;;;7.00;6.00;;;;;-147.17;100.00;49253.59;5062891;28;51104;-57
2021/10/26 01:41:09;;;;;;;;;6.67;5.33;;;;;-147.17;100.00;49281.13;5056566;28;51288;-56
2021/10/26 01:43:35;;;;;;;;;6.00;6.00;;;;;-147.17;100.00;49265.41;5063492;28;51154;-56
2021/10/26 01:46:00;;;;;;;;;5.33;4.67;;;;;-147.17;100.00;49296.88;5074593;28;51082;-54
2021/10/26 01:48:27;;;;;;;;;6.00;6.00;;;;;-147.17;100.00;49289.00;5068108;28;51093;-55
2021/10/26 01:50:53;;;;;;;;;3.67;3.67;;;;;-147.17;100.00;49304.75;5065760;28;51200;-55
2021/10/26 01:53:19;;;;;;;;;4.00;4.00;;;;;-147.17;100.00;49257.53;5053884;28;51057;-56
2021/10/26 01:55:44;;;;;;;;;5.00;4.00;;;;;-147.17;100.00;49261.47;5036156;28;51035;-54
2021/10/26 01:58:10;;;;;;;;;6.33;5.00;;;;;-147.17;100.00;49289.00;5063072;28;51070;-56
2021/10/26 02:00:37;;;;;;;;;5.00;5.00;;;;;-147.17;100.00;49302.78;5073626;28;51178;-56
2021/10/26 02:03:05;;;;;;;;;4.00;4.00;;;;;-147.17;100.00;49283.09;5064533;28;50966;-55
2021/10/26 02:05:30;;;;;;;;;4.00;4.00;;;;;-147.17;100.00;49296.88;5054393;28;51756;-57
2021/10/26 02:07:56;;;;;;;;;4.33;4.00;;;;;-147.17;100.00;49285.06;5058360;28;51261;-56
2021/10/26 02:10:21;;;;;;;;;3.67;3.00;;;;;-147.17;100.00;49273.25;5073645;28;51049;-56
2021/10/26 02:12:46;;;;;;;;;4.00;3.67;;;;;-147.17;100.00;49277.19;5072580;28;51281;-56
2021/10/26 02:15:12;;;;;;;;;3.67;3.67;;;;;-147.17;100.00;49322.47;5073998;28;52204;-56
2021/10/26 02:17:37;;;;;;;;;2.00;2.00;;;;;-147.17;100.00;49292.94;5045047;28;51146;-56
2021/10/26 02:20:04;;;;;;;;;4.00;4.00;;;;;-147.17;100.00;49289.00;5059359;28;51096;-52
2021/10/26 02:22:30;;;;;;;;;5.00;4.00;;;;;-147.17;100.00;49296.88;5071905;28;51595;-55
2021/10/26 02:24:55;;;;;;;;;3.67;3.67;;;;;-147.17;100.00;49300.81;5056466;28;51086;-55
2021/10/26 02:27:20;;;;;;;;;3.00;3.00;;;;;-147.17;100.00;49281.13;5055871;28;51173;-58
2021/10/26 02:29:46;;;;;;;;;4.00;3.00;;;;;-147.17;100.00;49308.69;5059416;28;51152;-56
2021/10/26 02:32:11;;;;;;;;;3.67;3.00;;;;;-147.17;100.00;49273.25;5065041;28;51225;-56
2021/10/26 02:34:37;;;;;;;;;4.00;4.00;;;;;-147.17;100.00;49296.88;5036987;28;51289;-55
2021/10/26 02:37:02;;;;;;;;;3.67;3.67;;;;;-147.17;100.00;49312.63;5053462;28;51117;-57
2021/10/26 02:39:28;;;;;;;;;4.00;3.00;;;;;-147.17;100.00;49289.00;5034802;28;51304;-56
2021/10/26 02:41:54;;;;;;;;;3.00;3.00;;;;;-147.17;100.00;49300.81;5059866;28;51059;-55
2021/10/26 02:44:19;;;;;;;;;5.00;5.00;;;;;-147.17;100.00;49296.88;5036680;28;51793;-57
2021/10/26 02:46:45;;;;;;;;;5.00;5.00;;;;;-147.17;100.00;49304.75;5058453;28;51014;-56
2021/10/26 02:49:10;;;;;;;;;4.00;4.00;;;;;-147.17;100.00;49304.75;5052865;28;51141;-57
2021/10/26 02:51:36;;;;;;;;;5.00;5.00;;;;;-147.17;100.00;49312.63;5052687;28;51355;-55
2021/10/26 02:54:02;;;;;;;;;2.67;2.33;;;;;-147.17;100.00;49314.59;5071086;28;51139;-57
2021/10/26 02:56:28;;;;;;;;;3.67;2.00;;;;;-147.17;100.00;49332.31;5071690;28;51169;-56
2021/10/26 02:58:54;;;;;;;;;4.00;4.00;;;;;-147.17;100.00;49300.81;5061416;28;51258;-55
2021/10/26 03:01:19;;;;;;;;;3.00;2.67;;;;;-147.17;100.00;49326.41;5064941;28;51277;-56
2021/10/26 03:03:45;;;;;;;;;4.00;3.00;;;;;-147.17;100.00;49350.03;5049843;28;51907;-56
2021/10/26 03:06:10;;;;;;;;;2.33;2.33;;;;;-147.17;100.00;49324.44;5052509;28;51141;-54
2021/10/26 03:08:36;;;;;;;;;4.00;4.00;;;;;-147.17;100.00;49306.72;5052318;28;51133;-55
2021/10/26 03:11:01;;;;;;;;;2.67;2.33;;;;;-147.17;100.00;49259.50;5052362;28;51029;-56
2021/10/26 03:13:27;;;;;;;;;3.00;3.00;;;;;-147.17;100.00;49324.44;5056489;28;52020;-55
2021/10/26 03:15:52;;;;;;;;;3.33;3.33;;;;;-147.17;100.00;49322.47;5072529;28;51077;-56
2021/10/26 03:18:18;;;;;;;;;3.00;3.00;;;;;-147.17;100.00;49304.75;5069795;28;51253;-57
2021/10/26 03:20:44;;;;;;;;;3.00;3.00;;;;;-147.17;100.00;49340.19;5072797;28;50948;-57
2021/10/26 03:23:10;;;;;;;;;3.00;3.00;;;;;-147.17;100.00;49316.56;5066306;28;51863;-56
2021/10/26 03:25:35;;;;;;;;;1.33;1.33;;;;;-147.17;100.00;49308.69;5063237;28;51117;-56
2021/10/26 03:28:01;;;;;;;;;4.67;4.67;;;;;-147.17;100.00;49308.69;5066613;28;51778;-56
2021/10/26 03:30:26;;;;;;;;;2.00;2.00;;;;;-147.17;100.00;49340.19;5052972;28;51169;-56
2021/10/26 03:32:52;;;;;;;;;3.00;3.00;;;;;-147.17;100.00;49350.03;5056287;28;51135;-57
2021/10/26 03:35:18;;;;;;;;;4.00;4.00;;;;;-147.17;100.00;49344.13;5073019;28;50990;-56
2021/10/26 03:37:44;;;;;;;;;4.00;3.67;;;;;-147.17;100.00;49346.09;5071711;28;51081;-56
2021/10/26 03:40:12;;;;;;;;;5.67;5.00;;;;;-147.17;100.00;49340.19;5073100;28;51350;-56
2021/10/26 03:42:38;;;;;;;;;9.00;9.00;;;;;-147.17;100.00;49328.38;5063965;28;51078;-56
2021/10/26 03:45:05;;;;;;;;;8.67;8.33;;;;;-147.17;100.00;49330.34;5072777;28;51065;-56
2021/10/26 03:47:31;;;;;;;;;9.00;8.00;;;;;-147.17;100.00;49330.34;5066330;28;51134;-57
2021/10/26 03:49:56;;;;;;;;;14.50;11.25;;;;;-147.17;100.00;49324.44;5051837;28;51219;-56
2021/10/26 03:52:22;;;;;;;;;9.75;9.50;;;;;-147.17;100.00;49316.56;5053262;28;52220;-55
2021/10/26 03:54:47;;;;;;;;;9.33;9.00;;;;;-147.17;100.00;49326.41;5051797;28;50999;-57
2021/10/26 03:57:13;;;;;;;;;9.67;9.67;;;;;-147.17;100.00;49336.25;5056419;28;51019;-56
2021/10/26 03:59:40;;;;;;;;;8.00;7.67;;;;;-147.17;100.00;49338.22;5058260;28;51045;-56
2021/10/26 04:02:11;;;;;;;;;10.00;7.33;;;;;-147.17;100.00;49352.00;5053915;28;52030;-56
2021/10/26 04:04:37;;;;;;;;;11.00;11.00;;;;;-147.17;100.00;49344.13;5059686;28;51066;-55
2021/10/26 04:07:05;;;;;;;;;7.33;7.33;;;;;-147.17;100.00;49340.19;5053578;28;51105;-54
2021/10/26 04:09:57;;;;;;;;;6.33;6.33;;;;;-147.17;100.00;49357.91;5034263;28;51310;-55
2021/10/26 04:12:26;;;;;;;;;7.00;7.00;;;;;-147.17;100.00;49350.03;5062734;28;51190;-55
2021/10/26 04:14:54;;;;;;;;;5.33;5.33;;;;;-147.17;100.00;49369.69;5072215;28;51154;-55
2021/10/26 04:17:24;;;;;;;;;6.00;5.33;;;;;-147.17;100.00;49359.84;5075556;28;50939;-55
2021/10/26 04:19:51;;;;;;;;;7.00;6.00;;;;;-147.17;100.00;49413.00;5075652;28;51230;-55
2021/10/26 04:22:17;;;;;;;;;5.33;5.33;;;;;-147.17;100.00;49369.69;5072026;28;51063;-55
2021/10/26 04:24:44;;;;;;;;;7.00;6.00;;;;;-147.17;100.00;49365.75;5054855;28;50940;-55
2021/10/26 04:27:11;;;;;;;;;6.00;5.67;;;;;-147.17;100.00;49379.53;5056595;28;51098;-55
2021/10/26 04:29:37;;;;;;;;;6.25;6.00;;;;;-147.17;100.00;49375.59;5065562;28;51036;-56
2021/10/26 04:32:02;;;;;;;;;5.00;5.00;;;;;-147.17;100.00;49391.34;5057230;28;52143;-55
2021/10/26 04:34:28;;;;;;;;;6.00;6.00;;;;;-147.17;100.00;49405.13;5074569;28;51197;-56
2021/10/26 04:36:55;;;;;;;;;6.33;6.00;;;;;-147.17;100.00;49379.53;5073765;28;51208;-55
2021/10/26 04:39:20;;;;;;;;;7.67;7.00;;;;;-147.17;100.00;49369.69;5073883;28;51301;-55
2021/10/26 04:41:46;;;;;;;;;6.33;5.67;;;;;-147.17;100.00;49369.69;5071309;28;51001;-56
2021/10/26 04:44:11;;;;;;;;;7.00;6.33;;;;;-147.17;100.00;49381.50;5074947;28;50990;-55
2021/10/26 04:46:36;;;;;;;;;4.00;4.00;;;;;-147.17;100.00;49407.09;5069567;28;51238;-56
2021/10/26 04:49:02;;;;;;;;;5.00;4.33;;;;;-147.17;100.00;49434.66;5061850;28;50935;-55
2021/10/26 04:51:27;;;;;;;;;6.75;6.00;;;;;-147.17;100.00;49379.53;5055813;28;52171;-55
2021/10/26 04:53:53;;;;;;;;;6.00;5.67;;;;;-147.17;100.00;49407.09;5074913;28;50967;-55
2021/10/26 04:56:18;;;;;;;;;7.25;7.00;;;;;-147.17;100.00;49395.28;5075053;28;50901;-56
2021/10/26 04:58:43;;;;;;;;;5.00;5.00;;;;;-147.17;100.00;49436.63;5053487;28;51377;-55
2021/10/26 05:01:08;;;;;;;;;6.33;6.00;;;;;-147.17;100.00;49436.63;5068625;28;51328;-56
2021/10/26 05:03:34;;;;;;;;;6.00;5.00;;;;;-147.17;100.00;49428.75;5071104;28;51084;-56
2021/10/26 05:06:00;;;;;;;;;6.50;6.00;;;;;-147.17;100.00;49395.28;5036739;28;51114;-54
2021/10/26 05:08:26;;;;;;;;;6.00;5.67;;;;;-147.17;100.00;49393.31;5070733;28;51174;-55
2021/10/26 05:10:51;;;;;;;;;5.33;5.33;;;;;-147.17;100.00;49387.41;5065763;28;51794;-55
2021/10/26 05:13:17;;;;;;;;;7.00;7.00;;;;;-147.17;100.00;49424.81;5058572;28;51142;-56
2021/10/26 05:15:43;;;;;;;;;6.25;6.25;;;;;-147.17;100.00;49440.56;5054354;28;51022;-56
2021/10/26 05:18:12;;;;;;;;;7.33;7.00;;;;;-147.17;100.00;49426.78;5060353;28;51235;-56
2021/10/26 05:20:38;;;;;;;;;8.00;8.00;;;;;-147.17;100.00;49436.63;5060007;28;53004;-55
2021/10/26 05:23:06;;;;;;;;;7.00;6.67;;;;;-147.17;100.00;49438.59;5068126;28;51153;-54
2021/10/26 05:25:32;;;;;;;;;5.33;5.33;;;;;-147.17;100.00;49414.97;5053942;28;51068;-55
2021/10/26 05:27:57;;;;;;;;;6.67;6.67;;;;;-147.17;100.00;49436.63;5055344;28;50997;-55
2021/10/26 05:30:23;;;;;;;;;8.00;7.00;;;;;-147.17;100.00;49411.03;5036146;28;51235;-54
2021/10/26 05:32:48;;;;;;;;;7.33;7.33;;;;;-147.17;100.00;49450.41;5035048;28;51135;-55
2021/10/26 05:35:14;;;;;;;;;7.75;7.75;;;;;-147.17;100.00;49442.53;5056373;28;51276;-56
2021/10/26 05:37:39;;;;;;;;;10.67;10.00;;;;;-147.17;100.00;49428.75;5061486;28;51265;-57
2021/10/26 05:40:06;;;;;;;;;8.33;8.00;;;;;-147.17;100.00;49458.25;5074731;28;52358;-55
2021/10/26 05:42:31;;;;;;;;;9.67;9.67;;;;;-147.17;100.00;49430.72;5074704;28;50885;-67
2021/10/26 05:44:56;;;;;;;;;11.00;11.00;;;;;-147.17;100.00;49432.69;5075034;28;51060;-68
2021/10/26 05:47:22;;;;;;;;;10.00;9.50;;;;;-147.17;100.00;49477.94;5074835;28;51262;-68
2021/10/26 05:49:47;;;;;;;;;13.00;12.00;;;;;-147.17;100.00;49474.00;5074456;28;50995;-67
2021/10/26 05:52:12;;;;;;;;;11.00;10.00;;;;;-147.17;100.00;49464.16;5067827;28;52034;-67
2021/10/26 05:54:38;;;;;;;;;7.50;7.50;;;;;-147.17;100.00;49503.53;5070634;28;51191;-68
2021/10/26 05:57:03;;;;;;;;;9.50;6.00;;;;;-147.17;100.00;49505.50;5068257;28;50944;-68
2021/10/26 05:59:29;;;;;;;;;10.33;10.00;;;;;-147.17;100.00;49501.56;5049500;28;51295;-68
2021/10/26 06:01:54;;;;;;;;;10.00;10.00;;;;;-147.17;100.00;49483.84;5066665;28;51105;-67
2021/10/26 06:04:20;;;;;;;;;14.67;12.00;;;;;-147.17;100.00;49454.31;5067137;28;51057;-68
2021/10/26 06:06:46;;;;;;;;;11.25;11.25;;;;;-147.17;100.00;49509.44;5068778;28;51363;-67
2021/10/26 06:09:14;;;;;;;;;12.25;11.00;;;;;-147.17;100.00;49489.75;5061561;28;52713;-67
2021/10/26 06:11:40;;;;;;;;;12.00;10.67;;;;;-147.17;100.00;49505.50;5065079;28;51157;-67
2021/10/26 06:14:08;;;;;;;;;15.50;13.00;;;;;-147.17;100.00;49507.47;5072868;28;51180;-67
2021/10/26 06:16:35;;;;;;;;;11.00;10.00;;;;;-147.17;100.00;49481.88;5063471;28;51435;-67
2021/10/26 06:19:00;;;;;;;;;11.25;11.25;;;;;-147.17;100.00;49497.63;5071532;28;51015;-69
2021/10/26 06:21:27;;;;;;;;;11.50;9.50;;;;;-147.17;100.00;49477.94;5062096;28;51261;-69
2021/10/26 06:23:53;;;;;;;;;13.00;12.00;;;;;-147.17;100.00;49479.91;5069101;28;51194;-68
2021/10/26 06:26:20;;;;;;;;;9.75;9.50;;;;;-147.17;100.00;49503.53;5064717;27;51099;-67
2021/10/26 06:28:46;;;;;;;;;13.67;13.00;;;;;-147.17;100.00;49456.28;5066015;28;51387;-68
2021/10/26 06:31:12;;;;;;;;;10.00;10.00;;;;;-147.17;100.00;49481.88;5064681;28;51038;-68
2021/10/26 06:33:38;;;;;;;;;12.00;12.00;;;;;-147.17;100.00;49483.84;5061810;27;51086;-68
2021/10/26 06:36:04;;;;;;;;;6.33;5.33;;;;;-147.17;100.00;49485.81;5068017;28;51237;-68
2021/10/26 06:38:29;;;;;;;;;10.50;9.25;;;;;-147.17;100.00;49544.88;5068214;28;51607;-69
2021/10/26 06:40:55;;;;;;;;;11.75;10.50;;;;;-147.17;100.00;49511.41;5069599;28;50987;-68
2021/10/26 06:43:20;;;;;;;;;9.25;8.50;;;;;-147.17;100.00;49509.44;5064935;28;51165;-69
2021/10/26 06:45:46;;;;;;;;;8.75;8.50;;;;;-147.17;100.00;49497.63;5051059;28;51331;-69
2021/10/26 06:48:11;;;;;;;;;13.75;13.25;;;;;-147.17;100.00;49511.41;5069281;28;52042;-68
2021/10/26 06:50:36;;;;;;;;;13.00;10.25;;;;;-147.17;100.00;49517.31;5067379;28;51031;-67
2021/10/26 06:53:02;;;;;;;;;10.75;10.75;;;;;-147.17;100.00;49493.69;5070316;28;51606;-67
2021/10/26 06:55:27;;;;;;;;;9.50;9.00;;;;;-147.17;100.00;49503.53;5055290;28;51301;-66
2021/10/26 06:57:53;;;;;;;;;8.75;8.75;;;;;-147.17;100.00;49493.69;5060944;28;51414;-66
2021/10/26 07:00:19;;;;;;;;;7.67;7.67;;;;;-147.17;100.00;49507.47;5068918;28;51388;-67
2021/10/26 07:02:50;;;;;;;;;17.75;17.00;;;;;-147.17;100.00;49493.69;5041319;28;51139;-67
2021/10/26 07:05:21;;;;;;;;;32.50;29.50;;;;;-147.17;100.00;49477.94;5066853;28;51947;-67
2021/10/26 07:07:46;;;;;;;;;13.00;12.50;;;;;-147.17;100.00;49466.13;5061081;28;51900;-68
2021/10/26 07:10:12;;;;;;;;;14.00;12.00;;;;;-147.17;100.00;49537.00;5052865;28;52211;-68
2021/10/26 07:12:39;;;;;;;;;11.00;10.50;;;;;-147.17;100.00;49499.59;5065878;27;51003;-67
2021/10/26 07:15:07;;;;;;;;;12.00;12.00;;;;;-147.17;100.00;49489.75;5064878;28;51027;-67
2021/10/26 07:17:37;;;;;;;;;11.25;11.25;;;;;-147.17;100.00;49501.56;5059667;28;52121;-67
2021/10/26 07:20:12;;;;;;;;;10.75;10.25;;;;;-147.17;100.00;49501.56;5063183;28;51166;-67
2021/10/26 07:22:38;;;;;;;;;10.00;10.00;;;;;-147.17;100.00;49466.13;5041461;28;51189;-67
2021/10/26 07:25:08;;;;;;;;;10.75;10.00;;;;;-147.17;100.00;49485.81;5061392;28;51251;-67
2021/10/26 07:27:39;;;;;;;;;12.75;11.75;;;;;-147.17;100.00;49475.97;5046764;28;52007;-67
2021/10/26 07:30:06;;;;;;;;;11.75;11.50;;;;;-147.17;100.00;49468.09;5056729;28;51086;-67
2021/10/26 07:32:32;;;;;;;;;18.25;14.75;;;;;-147.17;100.00;49462.19;5069971;28;51169;-67
2021/10/26 07:34:57;;;;;;;;;11.00;11.00;;;;;-147.17;100.00;49468.09;5071297;28;51051;-68
2021/10/26 07:37:28;;;;;;;;;13.25;13.00;;;;;-147.17;100.00;49460.22;5072069;28;51151;-66
2021/10/26 07:39:53;;;;;;;;;11.25;10.00;;;;;-147.17;100.00;49442.53;5055080;28;50992;-67
2021/10/26 07:42:20;;;;;;;;;13.00;12.25;;;;;-147.17;100.00;49440.56;5072348;28;51085;-67
2021/10/26 07:44:47;;;;;;;;;13.50;12.75;;;;;-147.17;100.00;49466.13;5072571;28;51163;-67
2021/10/26 07:47:16;;;;;;;;;14.50;14.25;;;;;-147.17;100.00;49450.41;5072164;28;51082;-67
2021/10/26 07:49:46;;;;;;;;;12.50;11.50;;;;;-147.17;100.00;49430.72;5071582;28;51278;-67
2021/10/26 07:52:12;;;;;;;;;15.75;14.75;;;;;-147.17;100.00;49399.22;5072405;28;51066;-68
2021/10/26 07:54:38;;;;;;;;;14.50;14.50;;;;;-147.17;100.00;49407.09;5072150;28;51329;-67
2021/10/26 07:57:05;;;;;;;;;16.00;15.75;;;;;-147.17;100.00;49409.06;5052417;28;51479;-67
2021/10/26 07:59:31;;;;;;;;;18.25;16.25;;;;;-147.17;100.00;49399.22;5051957;28;51033;-67
2021/10/26 08:01:57;;;;;;;;;16.50;14.50;;;;;-147.17;100.00;49393.31;5039947;28;51092;-67
2021/10/26 08:04:22;;;;;;;;;16.00;15.00;;;;;-147.17;100.00;49355.94;5059209;28;51243;-67
2021/10/26 08:06:48;;;;;;;;;14.50;14.50;;;;;-147.17;100.00;49405.13;5061512;28;52056;-68
2021/10/26 08:09:16;;;;;;;;;14.75;14.50;;;;;-147.17;100.00;49411.03;5033900;28;51095;-67
2021/10/26 08:11:41;;;;;;;;;10.75;10.25;;;;;-147.17;100.00;49430.72;5052100;28;51173;-67
2021/10/26 08:14:07;;;;;;;;;15.25;14.00;;;;;-147.17;100.00;49409.06;5052316;28;51057;-67
2021/10/26 08:16:32;;;;;;;;;16.50;14.50;;;;;-147.17;100.00;49385.44;5051920;28;51966;-68
2021/10/26 08:19:00;;;;;;;;;7.75;5.00;;;;;-147.17;100.00;49387.41;5052084;28;51157;-67
2021/10/26 08:21:26;;;;;;;;;15.00;14.00;;;;;-147.17;100.00;49430.72;5052129;28;51080;-68
2021/10/26 08:23:52;;;;;;;;;19.75;16.75;;;;;-147.17;100.00;49365.75;5052024;28;51193;-66
2021/10/26 08:26:23;;;;;;;;;15.75;14.00;;;;;-147.17;100.00;49399.22;5071506;28;51934;-68
2021/10/26 08:28:53;;;;;;;;;15.75;15.75;;;;;-147.17;100.00;49367.72;5039138;28;51167;-66
2021/10/26 08:31:24;;;;;;;;;30.50;27.00;;;;;-147.17;100.00;49367.72;5034192;28;51009;-67
2021/10/26 08:36:34;;;;;;;;;17.25;15.00;;;;;-147.17;100.00;49393.31;5051641;28;51062;-66
2021/10/26 08:39:00;;;;;;;;;12.75;12.75;;;;;-147.17;100.00;49403.16;5050737;28;51307;-66
2021/10/26 08:41:26;;;;;;;;;13.50;13.00;;;;;-147.17;100.00;49393.31;5051699;28;51180;-67
2021/10/26 08:43:53;;;;;;;;;18.50;17.25;;;;;-147.17;100.00;49383.47;5051921;28;51284;-66
2021/10/26 08:46:18;;;;;;;;;15.25;14.00;;;;;-147.17;100.00;49381.50;5051576;28;52399;-66
2021/10/26 08:48:50;;;;;;;;;19.25;18.75;;;;;-147.17;100.00;49387.41;5051284;28;50886;-66
2021/10/26 08:51:16;;;;;;;;;13.75;13.50;;;;;-147.17;100.00;49383.47;5051690;28;51178;-67
2021/10/26 08:53:44;;;;;;;;;16.25;14.25;;;;;-147.17;100.00;49328.38;5056421;28;51182;-66
2021/10/26 08:56:09;;;;;;;;;13.75;13.75;;;;;-147.17;100.00;49359.84;5059218;28;52732;-66
2021/10/26 08:58:35;;;;;;;;;13.25;12.50;;;;;-147.17;100.00;49391.34;5070257;28;51026;-66
2021/10/26 09:01:01;;;;;;;;;17.25;14.25;;;;;-147.17;100.00;49320.50;5070129;28;51300;-67
2021/10/26 09:03:34;;;;;;;;;16.00;14.75;;;;;-147.17;100.00;49361.81;5069637;28;51391;-66
2021/10/26 09:06:00;;;;;;;;;17.00;15.50;;;;;-147.17;100.00;49371.66;5054830;28;51861;-67
2021/10/26 09:08:27;;;;;;;;;12.00;12.00;;;;;-147.17;100.00;49367.72;5054087;28;50918;-66
2021/10/26 09:10:55;;;;;;;;;12.67;12.00;;;;;-147.17;100.00;49340.19;5054715;28;51111;-67
2021/10/26 09:16:50;;;;;;;;;15.50;14.25;;;;;-147.17;100.00;49249.66;5054143;28;50954;-67
2021/10/26 09:19:23;;;;;;;;;14.00;12.00;;;;;-147.17;100.00;49241.78;5054324;28;51173;-66
2021/10/26 09:22:00;;;;;;;;;14.25;12.50;;;;;-147.17;100.00;49269.34;5054455;28;51011;-67
2021/10/26 09:24:27;;;;;;;;;15.75;14.75;;;;;-147.17;100.00;49300.81;5054086;28;51172;-67
2021/10/26 09:26:55;;;;;;;;;14.25;13.75;;;;;-147.17;100.00;49300.81;5036527;28;52554;-66
2021/10/26 09:29:43;;;;;;;;;15.75;13.00;;;;;-147.17;100.00;49312.63;5055743;28;51039;-67
2021/10/26 09:32:17;;;;;;;;;15.00;11.00;;;;;-147.17;100.00;49279.16;5074279;28;51123;-67
2021/10/26 09:34:48;;;;;;;;;15.00;14.00;;;;;-147.17;100.00;49292.94;5074428;28;51230;-67
2021/10/26 09:37:15;;;;;;;;;15.75;14.50;;;;;-147.17;100.00;49247.69;5073635;28;52735;-69
2021/10/26 09:39:52;;;;;;;;;16.33;13.67;;;;;-147.17;100.00;49233.91;5055803;28;51145;-67
2021/10/26 09:42:19;;;;;;;;;14.00;11.00;;;;;-147.17;100.00;49237.84;5056631;28;51172;-67
2021/10/26 09:44:48;;;;;;;;;16.00;13.67;;;;;-147.17;100.00;49194.53;5054278;28;51356;-67
2021/10/26 09:47:23;;;;;;;;;10.50;9.50;;;;;-147.17;100.00;49147.31;5053715;28;51696;-67
2021/10/26 09:49:54;;;;;;;;;13.33;13.00;;;;;-147.17;100.00;49172.91;5054220;28;51190;-67
2021/10/26 09:52:31;;;;;;;;;14.67;13.33;;;;;-147.17;100.00;49094.19;5035265;28;51004;-66
2021/10/26 09:55:05;;;;;;;;;16.00;13.00;;;;;-147.17;100.00;49062.69;5054050;28;51170;-67
2021/10/26 09:57:33;;;;;;;;;9.00;8.33;;;;;-147.17;100.00;49086.31;5053624;28;51221;-67
2021/10/26 09:59:59;;;;;;;;;9.33;8.33;;;;;-147.17;100.00;49143.38;5053386;28;51111;-67
2021/10/26 10:02:26;;;;;;;;;9.67;9.00;;;;;-147.17;100.00;49113.88;5063512;28;51248;-67
2021/10/26 10:04:52;;;;;;;;;11.33;10.00;;;;;-147.17;100.00;49159.13;5070210;28;50942;-67
2021/10/26 10:07:28;;;;;;;;;10.00;10.00;;;;;-147.17;100.00;49237.84;5053116;28;51781;-67
2021/10/26 10:10:10;;;;;;;;;3.67;3.33;;;;;-147.17;100.00;49265.41;5053284;28;50980;-66
2021/10/26 10:12:36;;;;;;;;;12.00;11.00;;;;;-147.17;100.00;49243.75;5052401;28;51005;-66
2021/10/26 10:15:05;;;;;;;;;9.33;9.00;;;;;-147.17;100.00;49206.34;5053717;28;50977;-66
2021/10/26 10:17:33;;;;;;;;;11.33;11.33;;;;;-147.17;100.00;49202.41;5053102;28;52891;-66
2021/10/26 10:19:59;;;;;;;;;13.33;12.33;;;;;-147.17;100.00;49157.16;5053490;28;51077;-66
2021/10/26 10:22:29;;;;;;;;;11.00;9.67;;;;;-147.17;100.00;49111.91;5053068;28;50964;-66
2021/10/26 10:24:59;;;;;;;;;9.00;9.00;;;;;-147.17;100.00;49127.63;5053863;28;51156;-66
2021/10/26 10:27:33;;;;;;;;;10.00;10.00;;;;;-147.17;100.00;49125.66;5055322;28;51739;-67
2021/10/26 10:29:59;;;;;;;;;9.00;8.00;;;;;-147.17;100.00;49129.59;5052944;28;51126;-68
2021/10/26 10:32:28;;;;;;;;;10.00;9.00;;;;;-147.17;100.00;49178.81;5052962;28;50930;-66
2021/10/26 10:34:58;;;;;;;;;8.67;8.00;;;;;-147.17;100.00;49100.09;5053250;28;50943;-67
2021/10/26 10:37:27;;;;;;;;;10.33;7.00;;;;;-147.17;100.00;49174.88;5052692;28;51096;-66
2021/10/26 10:40:05;;;;;;;;;10.33;9.33;;;;;-147.17;100.00;49168.97;5053012;28;50890;-67
2021/10/26 10:42:42;;;;;;;;;8.00;7.00;;;;;-147.17;100.00;49163.06;5034088;28;50965;-67
2021/10/26 10:45:24;;;;;;;;;9.33;7.67;;;;;-147.17;100.00;49143.38;5052898;28;51178;-66
2021/10/26 10:47:51;;;;;;;;;6.33;6.33;;;;;-147.17;100.00;49135.50;5052436;28;52252;-67
2021/10/26 10:50:20;;;;;;;;;15.00;12.67;;;;;-147.17;100.00;49172.91;5056123;28;51095;-67
2021/10/26 10:53:21;;;;;;;;;12.33;11.00;;;;;-147.17;100.00;49204.38;5062358;28;51083;-67
2021/10/26 10:56:17;;;;;;;;;8.33;8.00;;;;;-147.17;100.00;49204.38;5043327;28;51138;-66
2021/10/26 10:58:44;;;;;;;;;12.00;10.00;;;;;-147.17;100.00;49186.69;5072330;28;51106;-66
2021/10/26 11:01:21;;;;;;;;;6.67;6.67;;;;;-147.17;100.00;49182.75;5069080;28;52023;-66
2021/10/26 11:03:47;;;;;;;;;9.00;9.00;;;;;-147.17;100.00;49163.06;5060098;28;51243;-66
2021/10/26 11:06:40;;;;;;;;;10.67;8.00;;;;;-147.17;100.00;49204.38;5054710;28;51222;-67
2021/10/26 11:09:27;;;;;;;;;10.33;10.00;;;;;-147.17;100.00;49320.50;5072337;28;51890;-68